sensor_id;sensor_type;location;lat;lon;timestamp;temperature;humidity
1103;DHT22;538;42.654;23.376;2022-10-31T00:01:27;15.20;12.50
1103;DHT22;538;42.654;23.376;2022-10-31T00:03:55;15.20;12.40
1103;DHT22;538;42.654;23.376;2022-10-31T00:06:22;15.20;12.60
1103;DHT22;538;42.654;23.376;2022-10-31T00:08:53;15.20;12.70
1103;DHT22;538;42.654;23.376;2022-10-31T00:11:20;15.20;12.70
1103;DHT22;538;42.654;23.376;2022-10-31T00:13:48;15.20;12.70
1103;DHT22;538;42.654;23.376;2022-10-31T00:16:18;15.20;12.90
1103;DHT22;538;42.654;23.376;2022-10-31T00:18:50;15.20;13.20
1103;DHT22;538;42.654;23.376;2022-10-31T00:21:17;15.20;13.20
1103;DHT22;538;42.654;23.376;2022-10-31T00:23:45;15.20;13.20
1103;DHT22;538;42.654;23.376;2022-10-31T00:26:12;15.20;13.20
1103;DHT22;538;42.654;23.376;2022-10-31T00:28:39;15.20;13.20
1103;DHT22;538;42.654;23.376;2022-10-31T00:31:08;15.10;13.10
1103;DHT22;538;42.654;23.376;2022-10-31T00:33:36;15.20;13.20
1103;DHT22;538;42.654;23.376;2022-10-31T00:36:07;15.10;13.50
1103;DHT22;538;42.654;23.376;2022-10-31T00:38:34;15.20;13.20
1103;DHT22;538;42.654;23.376;2022-10-31T00:41:02;15.10;13.30
1103;DHT22;538;42.654;23.376;2022-10-31T00:43:29;15.20;13.60
1103;DHT22;538;42.654;23.376;2022-10-31T00:45:56;15.20;13.50
1103;DHT22;538;42.654;23.376;2022-10-31T00:48:23;15.20;13.40
1103;DHT22;538;42.654;23.376;2022-10-31T00:50:51;15.20;13.50
1103;DHT22;538;42.654;23.376;2022-10-31T00:53:19;15.10;13.60
1103;DHT22;538;42.654;23.376;2022-10-31T00:55:46;15.10;13.80
1103;DHT22;538;42.654;23.376;2022-10-31T00:58:14;15.10;13.90
1103;DHT22;538;42.654;23.376;2022-10-31T01:00:41;15.20;14.00
1103;DHT22;538;42.654;23.376;2022-10-31T01:03:08;15.10;14.30
1103;DHT22;538;42.654;23.376;2022-10-31T01:05:35;15.10;14.00
1103;DHT22;538;42.654;23.376;2022-10-31T01:08:03;15.10;14.10
1103;DHT22;538;42.654;23.376;2022-10-31T01:10:32;15.10;14.10
1103;DHT22;538;42.654;23.376;2022-10-31T01:12:59;14.80;14.10
1103;DHT22;538;42.654;23.376;2022-10-31T01:15:26;15.00;14.90
1103;DHT22;538;42.654;23.376;2022-10-31T01:17:53;15.00;14.60
1103;DHT22;538;42.654;23.376;2022-10-31T01:20:20;15.00;14.70
1103;DHT22;538;42.654;23.376;2022-10-31T01:22:47;15.00;14.60
1103;DHT22;538;42.654;23.376;2022-10-31T01:25:14;15.00;14.60
1103;DHT22;538;42.654;23.376;2022-10-31T01:27:43;15.00;14.80
1103;DHT22;538;42.654;23.376;2022-10-31T01:30:11;15.00;14.80
1103;DHT22;538;42.654;23.376;2022-10-31T01:32:38;15.00;14.70
1103;DHT22;538;42.654;23.376;2022-10-31T01:35:06;15.10;14.70
1103;DHT22;538;42.654;23.376;2022-10-31T01:37:33;15.20;14.80
1103;DHT22;538;42.654;23.376;2022-10-31T01:40:00;15.20;15.30
1103;DHT22;538;42.654;23.376;2022-10-31T01:42:27;15.00;14.80
1103;DHT22;538;42.654;23.376;2022-10-31T01:44:59;15.00;15.10
1103;DHT22;538;42.654;23.376;2022-10-31T01:47:34;15.00;14.90
1103;DHT22;538;42.654;23.376;2022-10-31T01:50:06;14.90;15.70
1103;DHT22;538;42.654;23.376;2022-10-31T01:52:39;14.90;15.40
1103;DHT22;538;42.654;23.376;2022-10-31T01:55:09;14.80;15.50
1103;DHT22;538;42.654;23.376;2022-10-31T01:57:41;14.70;15.80
1103;DHT22;538;42.654;23.376;2022-10-31T02:00:12;14.60;16.10
1103;DHT22;538;42.654;23.376;2022-10-31T02:02:40;14.60;16.00
1103;DHT22;538;42.654;23.376;2022-10-31T02:05:10;14.60;16.10
1103;DHT22;538;42.654;23.376;2022-10-31T02:07:43;14.60;16.30
1103;DHT22;538;42.654;23.376;2022-10-31T02:10:12;14.50;16.50
1103;DHT22;538;42.654;23.376;2022-10-31T02:12:40;14.60;16.70
1103;DHT22;538;42.654;23.376;2022-10-31T02:15:10;14.50;16.70
1103;DHT22;538;42.654;23.376;2022-10-31T02:17:38;14.40;16.80
1103;DHT22;538;42.654;23.376;2022-10-31T02:20:12;14.40;16.60
1103;DHT22;538;42.654;23.376;2022-10-31T02:22:58;14.40;16.60
1103;DHT22;538;42.654;23.376;2022-10-31T02:25:46;14.40;16.60
1103;DHT22;538;42.654;23.376;2022-10-31T02:28:40;14.30;16.80
1103;DHT22;538;42.654;23.376;2022-10-31T02:31:20;14.30;17.20
1103;DHT22;538;42.654;23.376;2022-10-31T02:33:53;14.30;17.30
1103;DHT22;538;42.654;23.376;2022-10-31T02:36:26;14.30;17.50
1103;DHT22;538;42.654;23.376;2022-10-31T02:39:02;14.40;17.70
1103;DHT22;538;42.654;23.376;2022-10-31T02:41:40;14.30;17.70
1103;DHT22;538;42.654;23.376;2022-10-31T02:44:15;14.30;17.80
1103;DHT22;538;42.654;23.376;2022-10-31T02:46:49;14.30;18.10
1103;DHT22;538;42.654;23.376;2022-10-31T02:49:23;14.30;18.30
1103;DHT22;538;42.654;23.376;2022-10-31T02:51:53;14.30;17.90
1103;DHT22;538;42.654;23.376;2022-10-31T02:54:22;14.20;17.90
1103;DHT22;538;42.654;23.376;2022-10-31T02:56:52;14.30;17.70
1103;DHT22;538;42.654;23.376;2022-10-31T02:59:22;14.30;18.10
1103;DHT22;538;42.654;23.376;2022-10-31T03:05:14;14.20;18.40
1103;DHT22;538;42.654;23.376;2022-10-31T03:07:53;14.30;18.30
1103;DHT22;538;42.654;23.376;2022-10-31T03:10:31;14.30;17.90
1103;DHT22;538;42.654;23.376;2022-10-31T03:13:06;14.40;17.80
1103;DHT22;538;42.654;23.376;2022-10-31T03:15:36;14.40;17.70
1103;DHT22;538;42.654;23.376;2022-10-31T03:18:07;14.50;18.20
1103;DHT22;538;42.654;23.376;2022-10-31T03:20:39;14.50;18.90
1103;DHT22;538;42.654;23.376;2022-10-31T03:23:12;14.40;18.40
1103;DHT22;538;42.654;23.376;2022-10-31T03:25:41;14.40;18.60
1103;DHT22;538;42.654;23.376;2022-10-31T03:28:11;14.40;19.10
1103;DHT22;538;42.654;23.376;2022-10-31T03:30:41;14.40;19.30
1103;DHT22;538;42.654;23.376;2022-10-31T03:33:13;14.40;19.00
1103;DHT22;538;42.654;23.376;2022-10-31T03:35:44;14.30;19.10
1103;DHT22;538;42.654;23.376;2022-10-31T03:38:11;14.30;19.10
1103;DHT22;538;42.654;23.376;2022-10-31T03:40:41;14.20;19.30
1103;DHT22;538;42.654;23.376;2022-10-31T03:43:13;14.20;19.60
1103;DHT22;538;42.654;23.376;2022-10-31T03:45:45;14.20;19.90
1103;DHT22;538;42.654;23.376;2022-10-31T03:48:15;14.10;19.60
1103;DHT22;538;42.654;23.376;2022-10-31T03:50:50;14.20;19.60
1103;DHT22;538;42.654;23.376;2022-10-31T03:53:24;14.10;19.80
1103;DHT22;538;42.654;23.376;2022-10-31T03:55:57;14.10;20.20
1103;DHT22;538;42.654;23.376;2022-10-31T03:58:28;14.10;20.80
1103;DHT22;538;42.654;23.376;2022-10-31T04:00:59;14.10;20.30
1103;DHT22;538;42.654;23.376;2022-10-31T04:03:31;14.00;20.60
1103;DHT22;538;42.654;23.376;2022-10-31T04:06:05;14.00;20.20
1103;DHT22;538;42.654;23.376;2022-10-31T04:08:37;13.90;20.10
1103;DHT22;538;42.654;23.376;2022-10-31T04:11:08;13.90;20.30
1103;DHT22;538;42.654;23.376;2022-10-31T04:13:37;13.80;20.10
1103;DHT22;538;42.654;23.376;2022-10-31T04:16:07;13.80;20.00
1103;DHT22;538;42.654;23.376;2022-10-31T04:18:36;13.70;20.30
1103;DHT22;538;42.654;23.376;2022-10-31T04:21:06;13.80;20.50
1103;DHT22;538;42.654;23.376;2022-10-31T04:23:34;13.60;20.60
1103;DHT22;538;42.654;23.376;2022-10-31T04:26:02;13.60;21.40
1103;DHT22;538;42.654;23.376;2022-10-31T04:28:29;13.70;21.60
1103;DHT22;538;42.654;23.376;2022-10-31T04:30:59;13.70;21.80
1103;DHT22;538;42.654;23.376;2022-10-31T04:33:26;13.60;21.70
1103;DHT22;538;42.654;23.376;2022-10-31T04:35:55;13.70;22.00
1103;DHT22;538;42.654;23.376;2022-10-31T04:38:22;13.70;22.30
1103;DHT22;538;42.654;23.376;2022-10-31T04:40:49;13.70;21.90
1103;DHT22;538;42.654;23.376;2022-10-31T04:43:18;13.80;22.00
1103;DHT22;538;42.654;23.376;2022-10-31T04:45:45;13.60;22.60
1103;DHT22;538;42.654;23.376;2022-10-31T04:48:12;13.70;22.20
1103;DHT22;538;42.654;23.376;2022-10-31T04:50:39;13.80;22.40
1103;DHT22;538;42.654;23.376;2022-10-31T04:53:07;13.80;22.50
1103;DHT22;538;42.654;23.376;2022-10-31T04:55:35;13.80;22.80
1103;DHT22;538;42.654;23.376;2022-10-31T04:58:03;13.80;22.60
1103;DHT22;538;42.654;23.376;2022-10-31T05:00:30;13.80;22.70
1103;DHT22;538;42.654;23.376;2022-10-31T05:02:57;13.80;22.90
1103;DHT22;538;42.654;23.376;2022-10-31T05:05:27;13.70;23.10
1103;DHT22;538;42.654;23.376;2022-10-31T05:07:54;13.80;23.20
1103;DHT22;538;42.654;23.376;2022-10-31T05:10:25;13.70;23.70
1103;DHT22;538;42.654;23.376;2022-10-31T05:12:53;13.80;23.40
1103;DHT22;538;42.654;23.376;2022-10-31T05:15:22;13.80;23.20
1103;DHT22;538;42.654;23.376;2022-10-31T05:17:50;13.80;23.00
1103;DHT22;538;42.654;23.376;2022-10-31T05:20:19;13.80;23.00
1103;DHT22;538;42.654;23.376;2022-10-31T05:22:48;13.90;22.80
1103;DHT22;538;42.654;23.376;2022-10-31T05:25:17;13.90;22.80
1103;DHT22;538;42.654;23.376;2022-10-31T05:27:48;13.80;23.20
1103;DHT22;538;42.654;23.376;2022-10-31T05:30:18;13.80;23.80
1103;DHT22;538;42.654;23.376;2022-10-31T05:32:46;13.90;23.90
1103;DHT22;538;42.654;23.376;2022-10-31T05:35:15;13.80;23.80
1103;DHT22;538;42.654;23.376;2022-10-31T05:37:43;13.80;23.70
1103;DHT22;538;42.654;23.376;2022-10-31T05:40:12;13.70;23.70
1103;DHT22;538;42.654;23.376;2022-10-31T05:42:41;13.70;23.80
1103;DHT22;538;42.654;23.376;2022-10-31T05:45:11;13.80;23.80
1103;DHT22;538;42.654;23.376;2022-10-31T05:47:39;13.70;23.80
1103;DHT22;538;42.654;23.376;2022-10-31T05:50:07;13.70;23.80
1103;DHT22;538;42.654;23.376;2022-10-31T05:52:35;13.60;24.10
1103;DHT22;538;42.654;23.376;2022-10-31T05:55:03;13.50;24.50
1103;DHT22;538;42.654;23.376;2022-10-31T05:57:32;13.60;24.60
1103;DHT22;538;42.654;23.376;2022-10-31T05:59:59;13.50;25.10
1103;DHT22;538;42.654;23.376;2022-10-31T06:02:28;13.50;25.50
1103;DHT22;538;42.654;23.376;2022-10-31T06:05:00;13.50;25.10
1103;DHT22;538;42.654;23.376;2022-10-31T06:07:27;13.50;25.20
1103;DHT22;538;42.654;23.376;2022-10-31T06:09:58;13.40;25.00
1103;DHT22;538;42.654;23.376;2022-10-31T06:12:25;13.40;25.80
1103;DHT22;538;42.654;23.376;2022-10-31T06:14:52;13.50;25.90
1103;DHT22;538;42.654;23.376;2022-10-31T06:17:19;13.60;26.00
1103;DHT22;538;42.654;23.376;2022-10-31T06:19:48;13.70;26.00
1103;DHT22;538;42.654;23.376;2022-10-31T06:22:15;13.70;25.70
1103;DHT22;538;42.654;23.376;2022-10-31T06:24:42;13.80;25.30
1103;DHT22;538;42.654;23.376;2022-10-31T06:27:09;13.80;25.10
1103;DHT22;538;42.654;23.376;2022-10-31T06:29:36;13.90;24.60
1103;DHT22;538;42.654;23.376;2022-10-31T06:32:04;14.00;24.70
1103;DHT22;538;42.654;23.376;2022-10-31T06:34:31;14.00;24.50
1103;DHT22;538;42.654;23.376;2022-10-31T06:37:00;14.10;24.20
1103;DHT22;538;42.654;23.376;2022-10-31T06:39:27;14.10;24.00
1103;DHT22;538;42.654;23.376;2022-10-31T06:41:54;14.20;24.10
1103;DHT22;538;42.654;23.376;2022-10-31T06:44:21;14.20;23.80
1103;DHT22;538;42.654;23.376;2022-10-31T06:46:48;14.40;23.40
1103;DHT22;538;42.654;23.376;2022-10-31T06:49:15;14.40;23.10
1103;DHT22;538;42.654;23.376;2022-10-31T06:51:42;14.40;23.40
1103;DHT22;538;42.654;23.376;2022-10-31T06:54:11;14.50;23.00
1103;DHT22;538;42.654;23.376;2022-10-31T06:56:38;14.60;22.80
1103;DHT22;538;42.654;23.376;2022-10-31T06:59:05;14.70;22.30
1103;DHT22;538;42.654;23.376;2022-10-31T07:01:33;14.70;22.20
1103;DHT22;538;42.654;23.376;2022-10-31T07:04:00;14.90;21.90
1103;DHT22;538;42.654;23.376;2022-10-31T07:06:27;14.90;22.00
1103;DHT22;538;42.654;23.376;2022-10-31T07:08:54;15.00;22.20
1103;DHT22;538;42.654;23.376;2022-10-31T07:11:23;15.10;21.60
1103;DHT22;538;42.654;23.376;2022-10-31T07:13:50;15.20;21.30
1103;DHT22;538;42.654;23.376;2022-10-31T07:16:17;15.20;21.00
1103;DHT22;538;42.654;23.376;2022-10-31T07:18:44;15.30;21.00
1103;DHT22;538;42.654;23.376;2022-10-31T07:21:11;15.40;21.10
1103;DHT22;538;42.654;23.376;2022-10-31T07:23:39;15.60;20.90
1103;DHT22;538;42.654;23.376;2022-10-31T07:26:06;15.60;20.80
1103;DHT22;538;42.654;23.376;2022-10-31T07:28:35;15.70;20.50
1103;DHT22;538;42.654;23.376;2022-10-31T07:31:02;15.80;20.20
1103;DHT22;538;42.654;23.376;2022-10-31T07:33:29;15.80;20.00
1103;DHT22;538;42.654;23.376;2022-10-31T07:35:59;15.80;20.00
1103;DHT22;538;42.654;23.376;2022-10-31T07:38:27;15.80;20.10
1103;DHT22;538;42.654;23.376;2022-10-31T07:40:54;16.00;19.90
1103;DHT22;538;42.654;23.376;2022-10-31T07:43:21;16.10;19.60
1103;DHT22;538;42.654;23.376;2022-10-31T07:45:53;16.30;19.40
1103;DHT22;538;42.654;23.376;2022-10-31T07:48:21;16.30;18.80
1103;DHT22;538;42.654;23.376;2022-10-31T07:50:48;16.40;18.60
1103;DHT22;538;42.654;23.376;2022-10-31T07:53:15;16.40;18.30
1103;DHT22;538;42.654;23.376;2022-10-31T07:55:43;16.40;18.50
1103;DHT22;538;42.654;23.376;2022-10-31T07:58:11;16.50;18.20
1103;DHT22;538;42.654;23.376;2022-10-31T08:00:41;16.70;18.20
1103;DHT22;538;42.654;23.376;2022-10-31T08:03:14;16.90;18.00
1103;DHT22;538;42.654;23.376;2022-10-31T08:05:42;17.40;17.70
1103;DHT22;538;42.654;23.376;2022-10-31T08:08:12;17.30;17.00
1103;DHT22;538;42.654;23.376;2022-10-31T08:10:39;17.50;16.10
1103;DHT22;538;42.654;23.376;2022-10-31T08:13:08;17.60;15.90
1103;DHT22;538;42.654;23.376;2022-10-31T08:15:36;17.90;16.10
1103;DHT22;538;42.654;23.376;2022-10-31T08:18:05;18.20;15.30
1103;DHT22;538;42.654;23.376;2022-10-31T08:20:34;18.20;14.80
1103;DHT22;538;42.654;23.376;2022-10-31T08:23:03;18.30;14.40
1103;DHT22;538;42.654;23.376;2022-10-31T08:25:33;18.50;14.30
1103;DHT22;538;42.654;23.376;2022-10-31T08:28:00;18.90;14.00
1103;DHT22;538;42.654;23.376;2022-10-31T08:30:29;19.10;13.30
1103;DHT22;538;42.654;23.376;2022-10-31T08:32:58;19.20;12.70
1103;DHT22;538;42.654;23.376;2022-10-31T08:35:25;19.40;12.10
1103;DHT22;538;42.654;23.376;2022-10-31T08:37:55;19.40;12.10
1103;DHT22;538;42.654;23.376;2022-10-31T08:40:23;19.80;12.30
1103;DHT22;538;42.654;23.376;2022-10-31T08:42:56;20.10;11.50
1103;DHT22;538;42.654;23.376;2022-10-31T08:45:24;20.40;11.10
1103;DHT22;538;42.654;23.376;2022-10-31T08:47:51;20.50;10.00
1103;DHT22;538;42.654;23.376;2022-10-31T08:50:18;20.70;9.80
1103;DHT22;538;42.654;23.376;2022-10-31T08:52:45;21.00;9.70
1103;DHT22;538;42.654;23.376;2022-10-31T08:55:14;21.20;9.30
1103;DHT22;538;42.654;23.376;2022-10-31T08:57:41;21.40;9.20
1103;DHT22;538;42.654;23.376;2022-10-31T09:00:09;21.80;8.50
1103;DHT22;538;42.654;23.376;2022-10-31T09:02:37;22.00;8.10
1103;DHT22;538;42.654;23.376;2022-10-31T09:05:05;22.40;7.70
1103;DHT22;538;42.654;23.376;2022-10-31T09:07:32;22.60;7.10
1103;DHT22;538;42.654;23.376;2022-10-31T09:09:59;22.80;7.20
1103;DHT22;538;42.654;23.376;2022-10-31T09:12:28;22.70;6.60
1103;DHT22;538;42.654;23.376;2022-10-31T09:14:55;22.90;6.90
1103;DHT22;538;42.654;23.376;2022-10-31T09:17:22;23.40;6.40
1103;DHT22;538;42.654;23.376;2022-10-31T09:19:52;23.70;5.80
1103;DHT22;538;42.654;23.376;2022-10-31T09:22:19;23.80;5.80
1103;DHT22;538;42.654;23.376;2022-10-31T09:24:46;24.00;5.20
1103;DHT22;538;42.654;23.376;2022-10-31T09:27:14;24.30;5.00
1103;DHT22;538;42.654;23.376;2022-10-31T09:29:43;24.40;4.50
1103;DHT22;538;42.654;23.376;2022-10-31T09:32:10;24.60;4.40
1103;DHT22;538;42.654;23.376;2022-10-31T09:34:37;25.00;4.00
1103;DHT22;538;42.654;23.376;2022-10-31T09:37:04;25.30;3.70
1103;DHT22;538;42.654;23.376;2022-10-31T09:39:31;25.50;3.50
1103;DHT22;538;42.654;23.376;2022-10-31T09:42:35;25.80;3.10
1103;DHT22;538;42.654;23.376;2022-10-31T09:45:10;25.70;2.00
1103;DHT22;538;42.654;23.376;2022-10-31T09:47:48;26.00;2.40
1103;DHT22;538;42.654;23.376;2022-10-31T09:50:20;26.20;2.10
1103;DHT22;538;42.654;23.376;2022-10-31T09:52:57;26.30;2.30
1103;DHT22;538;42.654;23.376;2022-10-31T09:55:31;26.60;1.40
1103;DHT22;538;42.654;23.376;2022-10-31T09:58:02;26.80;1.00
1103;DHT22;538;42.654;23.376;2022-10-31T10:00:31;27.20;1.00
1103;DHT22;538;42.654;23.376;2022-10-31T10:03:04;27.40;1.00
1103;DHT22;538;42.654;23.376;2022-10-31T10:05:39;27.70;1.00
1103;DHT22;538;42.654;23.376;2022-10-31T10:08:10;27.80;1.00
1103;DHT22;538;42.654;23.376;2022-10-31T10:10:50;27.80;1.00
1103;DHT22;538;42.654;23.376;2022-10-31T10:13:45;28.20;1.00
1103;DHT22;538;42.654;23.376;2022-10-31T10:16:23;28.70;1.00
1103;DHT22;538;42.654;23.376;2022-10-31T10:19:05;29.10;1.00
1103;DHT22;538;42.654;23.376;2022-10-31T10:21:45;29.30;1.00
1103;DHT22;538;42.654;23.376;2022-10-31T10:24:33;29.60;1.00
1103;DHT22;538;42.654;23.376;2022-10-31T10:27:10;29.50;1.00
1103;DHT22;538;42.654;23.376;2022-10-31T10:29:47;30.90;1.00
1103;DHT22;538;42.654;23.376;2022-10-31T10:32:23;30.70;1.00
1103;DHT22;538;42.654;23.376;2022-10-31T10:34:53;31.10;1.00
1103;DHT22;538;42.654;23.376;2022-10-31T10:37:26;31.70;1.00
1103;DHT22;538;42.654;23.376;2022-10-31T10:39:58;32.30;1.00
1103;DHT22;538;42.654;23.376;2022-10-31T10:42:27;32.70;1.00
1103;DHT22;538;42.654;23.376;2022-10-31T10:45:15;33.50;1.00
1103;DHT22;538;42.654;23.376;2022-10-31T10:48:08;33.90;1.00
1103;DHT22;538;42.654;23.376;2022-10-31T10:50:41;33.80;1.00
1103;DHT22;538;42.654;23.376;2022-10-31T10:53:25;34.30;1.00
1103;DHT22;538;42.654;23.376;2022-10-31T10:56:10;34.90;1.00
1103;DHT22;538;42.654;23.376;2022-10-31T10:58:39;35.40;1.00
1103;DHT22;538;42.654;23.376;2022-10-31T11:01:11;35.70;1.00
1103;DHT22;538;42.654;23.376;2022-10-31T11:03:41;36.20;1.00
1103;DHT22;538;42.654;23.376;2022-10-31T11:06:17;35.90;1.00
1103;DHT22;538;42.654;23.376;2022-10-31T11:08:48;36.70;1.00
1103;DHT22;538;42.654;23.376;2022-10-31T11:11:24;36.60;1.00
1103;DHT22;538;42.654;23.376;2022-10-31T11:13:59;36.60;1.00
1103;DHT22;538;42.654;23.376;2022-10-31T11:16:44;36.60;1.00
1103;DHT22;538;42.654;23.376;2022-10-31T11:19:19;37.40;1.00
1103;DHT22;538;42.654;23.376;2022-10-31T11:21:47;37.50;1.00
1103;DHT22;538;42.654;23.376;2022-10-31T11:24:16;36.80;1.00
1103;DHT22;538;42.654;23.376;2022-10-31T11:26:45;36.70;1.00
1103;DHT22;538;42.654;23.376;2022-10-31T11:29:17;36.60;1.00
1103;DHT22;538;42.654;23.376;2022-10-31T11:31:47;37.50;1.00
1103;DHT22;538;42.654;23.376;2022-10-31T11:34:25;38.10;1.00
1103;DHT22;538;42.654;23.376;2022-10-31T11:36:54;38.10;1.00
1103;DHT22;538;42.654;23.376;2022-10-31T11:39:23;37.80;1.00
1103;DHT22;538;42.654;23.376;2022-10-31T11:41:52;37.30;1.00
1103;DHT22;538;42.654;23.376;2022-10-31T11:44:21;38.00;1.00
1103;DHT22;538;42.654;23.376;2022-10-31T11:46:51;38.40;1.00
1103;DHT22;538;42.654;23.376;2022-10-31T11:49:30;37.40;1.00
1103;DHT22;538;42.654;23.376;2022-10-31T11:52:01;37.60;1.00
1103;DHT22;538;42.654;23.376;2022-10-31T11:54:33;37.70;1.00
1103;DHT22;538;42.654;23.376;2022-10-31T11:57:02;38.00;1.00
1103;DHT22;538;42.654;23.376;2022-10-31T11:59:31;38.10;1.00
1103;DHT22;538;42.654;23.376;2022-10-31T12:02:00;37.80;1.00
1103;DHT22;538;42.654;23.376;2022-10-31T12:04:35;36.60;1.00
1103;DHT22;538;42.654;23.376;2022-10-31T12:07:03;37.00;1.00
1103;DHT22;538;42.654;23.376;2022-10-31T12:09:34;37.40;1.00
1103;DHT22;538;42.654;23.376;2022-10-31T12:12:25;37.10;1.00
1103;DHT22;538;42.654;23.376;2022-10-31T12:15:03;36.80;1.00
1103;DHT22;538;42.654;23.376;2022-10-31T12:17:38;36.80;1.00
1103;DHT22;538;42.654;23.376;2022-10-31T12:20:21;36.90;1.00
1103;DHT22;538;42.654;23.376;2022-10-31T12:22:58;36.50;1.00
1103;DHT22;538;42.654;23.376;2022-10-31T12:25:35;36.60;1.00
1103;DHT22;538;42.654;23.376;2022-10-31T12:28:19;36.50;1.00
1103;DHT22;538;42.654;23.376;2022-10-31T12:30:58;36.10;1.00
1103;DHT22;538;42.654;23.376;2022-10-31T12:33:41;36.10;1.00
1103;DHT22;538;42.654;23.376;2022-10-31T12:36:25;36.30;1.00
1103;DHT22;538;42.654;23.376;2022-10-31T12:39:06;36.50;1.00
1103;DHT22;538;42.654;23.376;2022-10-31T12:41:47;35.70;1.00
1103;DHT22;538;42.654;23.376;2022-10-31T12:44:45;36.10;1.00
1103;DHT22;538;42.654;23.376;2022-10-31T12:47:35;34.60;1.00
1103;DHT22;538;42.654;23.376;2022-10-31T12:50:20;33.60;1.00
1103;DHT22;538;42.654;23.376;2022-10-31T12:52:59;33.10;1.00
1103;DHT22;538;42.654;23.376;2022-10-31T12:55:44;33.20;1.00
1103;DHT22;538;42.654;23.376;2022-10-31T12:58:19;32.40;1.00
1103;DHT22;538;42.654;23.376;2022-10-31T13:00:53;31.60;1.00
1103;DHT22;538;42.654;23.376;2022-10-31T13:03:35;31.80;1.00
1103;DHT22;538;42.654;23.376;2022-10-31T13:06:08;32.00;1.00
1103;DHT22;538;42.654;23.376;2022-10-31T13:08:41;32.20;1.00
1103;DHT22;538;42.654;23.376;2022-10-31T13:11:15;32.30;1.00
1103;DHT22;538;42.654;23.376;2022-10-31T13:13:49;32.20;1.00
1103;DHT22;538;42.654;23.376;2022-10-31T13:16:19;32.00;1.00
1103;DHT22;538;42.654;23.376;2022-10-31T13:18:51;31.70;1.00
1103;DHT22;538;42.654;23.376;2022-10-31T13:21:22;31.30;1.00
1103;DHT22;538;42.654;23.376;2022-10-31T13:23:51;30.90;1.00
1103;DHT22;538;42.654;23.376;2022-10-31T13:26:26;30.50;1.00
1103;DHT22;538;42.654;23.376;2022-10-31T13:29:01;30.20;1.00
1103;DHT22;538;42.654;23.376;2022-10-31T13:31:33;30.00;1.00
1103;DHT22;538;42.654;23.376;2022-10-31T13:34:03;29.80;1.00
1103;DHT22;538;42.654;23.376;2022-10-31T13:36:36;29.60;1.00
1103;DHT22;538;42.654;23.376;2022-10-31T13:39:14;29.50;1.00
1103;DHT22;538;42.654;23.376;2022-10-31T13:41:48;29.40;1.00
1103;DHT22;538;42.654;23.376;2022-10-31T13:44:20;29.30;1.00
1103;DHT22;538;42.654;23.376;2022-10-31T13:46:49;29.20;1.00
1103;DHT22;538;42.654;23.376;2022-10-31T13:49:39;29.00;1.00
1103;DHT22;538;42.654;23.376;2022-10-31T13:52:15;28.90;1.00
1103;DHT22;538;42.654;23.376;2022-10-31T13:54:45;28.60;1.00
1103;DHT22;538;42.654;23.376;2022-10-31T13:57:17;28.50;1.00
1103;DHT22;538;42.654;23.376;2022-10-31T13:59:50;28.10;1.00
1103;DHT22;538;42.654;23.376;2022-10-31T14:02:23;27.70;1.00
1103;DHT22;538;42.654;23.376;2022-10-31T14:04:54;27.70;1.00
1103;DHT22;538;42.654;23.376;2022-10-31T14:07:23;27.70;1.00
1103;DHT22;538;42.654;23.376;2022-10-31T14:09:56;27.60;1.00
1103;DHT22;538;42.654;23.376;2022-10-31T14:12:28;27.60;1.00
1103;DHT22;538;42.654;23.376;2022-10-31T14:14:58;27.60;1.00
1103;DHT22;538;42.654;23.376;2022-10-31T14:17:28;27.40;1.00
1103;DHT22;538;42.654;23.376;2022-10-31T14:20:24;27.20;1.00
1103;DHT22;538;42.654;23.376;2022-10-31T14:22:54;27.00;1.00
1103;DHT22;538;42.654;23.376;2022-10-31T14:25:32;26.90;1.00
1103;DHT22;538;42.654;23.376;2022-10-31T14:28:00;26.70;1.00
1103;DHT22;538;42.654;23.376;2022-10-31T14:30:29;26.70;1.00
1103;DHT22;538;42.654;23.376;2022-10-31T14:32:59;26.50;1.00
1103;DHT22;538;42.654;23.376;2022-10-31T14:35:37;26.40;1.00
1103;DHT22;538;42.654;23.376;2022-10-31T14:38:30;26.20;1.00
1103;DHT22;538;42.654;23.376;2022-10-31T14:41:18;26.10;1.00
1103;DHT22;538;42.654;23.376;2022-10-31T14:44:04;26.00;1.00
1103;DHT22;538;42.654;23.376;2022-10-31T14:46:46;25.90;1.00
1103;DHT22;538;42.654;23.376;2022-10-31T14:49:28;25.70;1.00
1103;DHT22;538;42.654;23.376;2022-10-31T14:51:59;25.50;1.00
1103;DHT22;538;42.654;23.376;2022-10-31T14:54:30;25.40;1.00
1103;DHT22;538;42.654;23.376;2022-10-31T14:57:02;25.20;1.00
1103;DHT22;538;42.654;23.376;2022-10-31T14:59:34;25.10;1.00
1103;DHT22;538;42.654;23.376;2022-10-31T15:02:10;25.00;1.00
1103;DHT22;538;42.654;23.376;2022-10-31T15:04:38;24.90;1.00
1103;DHT22;538;42.654;23.376;2022-10-31T15:07:09;24.80;1.00
1103;DHT22;538;42.654;23.376;2022-10-31T15:09:37;24.70;1.00
1103;DHT22;538;42.654;23.376;2022-10-31T15:12:23;24.60;1.00
1103;DHT22;538;42.654;23.376;2022-10-31T15:14:51;24.50;1.00
1103;DHT22;538;42.654;23.376;2022-10-31T15:17:19;24.40;1.20
1103;DHT22;538;42.654;23.376;2022-10-31T15:19:47;24.20;1.20
1103;DHT22;538;42.654;23.376;2022-10-31T15:22:16;24.00;1.40
1103;DHT22;538;42.654;23.376;2022-10-31T15:24:44;23.80;1.50
1103;DHT22;538;42.654;23.376;2022-10-31T15:27:15;23.60;1.80
1103;DHT22;538;42.654;23.376;2022-10-31T15:30:01;23.50;1.90
1103;DHT22;538;42.654;23.376;2022-10-31T15:32:29;23.30;1.40
1103;DHT22;538;42.654;23.376;2022-10-31T15:34:56;23.20;1.90
1103;DHT22;538;42.654;23.376;2022-10-31T15:37:25;23.10;2.00
1103;DHT22;538;42.654;23.376;2022-10-31T15:39:53;23.00;2.20
1103;DHT22;538;42.654;23.376;2022-10-31T15:42:22;23.00;2.20
1103;DHT22;538;42.654;23.376;2022-10-31T15:44:54;22.90;2.10
1103;DHT22;538;42.654;23.376;2022-10-31T15:47:25;22.80;2.00
1103;DHT22;538;42.654;23.376;2022-10-31T15:49:53;22.70;2.00
1103;DHT22;538;42.654;23.376;2022-10-31T15:52:28;22.60;1.90
1103;DHT22;538;42.654;23.376;2022-10-31T15:54:59;22.50;1.90
1103;DHT22;538;42.654;23.376;2022-10-31T15:57:27;22.50;1.90
1103;DHT22;538;42.654;23.376;2022-10-31T15:59:55;22.50;2.20
1103;DHT22;538;42.654;23.376;2022-10-31T16:02:25;22.40;2.40
1103;DHT22;538;42.654;23.376;2022-10-31T16:04:54;22.40;2.60
1103;DHT22;538;42.654;23.376;2022-10-31T16:07:22;22.20;2.90
1103;DHT22;538;42.654;23.376;2022-10-31T16:09:51;22.10;3.40
1103;DHT22;538;42.654;23.376;2022-10-31T16:12:18;22.00;3.80
1103;DHT22;538;42.654;23.376;2022-10-31T16:14:46;21.70;4.30
1103;DHT22;538;42.654;23.376;2022-10-31T16:17:15;21.60;4.40
1103;DHT22;538;42.654;23.376;2022-10-31T16:19:49;21.30;4.40
1103;DHT22;538;42.654;23.376;2022-10-31T16:22:20;21.10;5.00
1103;DHT22;538;42.654;23.376;2022-10-31T16:24:51;20.90;5.00
1103;DHT22;538;42.654;23.376;2022-10-31T16:27:21;20.60;5.50
1103;DHT22;538;42.654;23.376;2022-10-31T16:29:52;20.40;5.70
1103;DHT22;538;42.654;23.376;2022-10-31T16:32:51;20.30;6.20
1103;DHT22;538;42.654;23.376;2022-10-31T16:35:25;20.40;6.40
1103;DHT22;538;42.654;23.376;2022-10-31T16:37:52;20.30;6.70
1103;DHT22;538;42.654;23.376;2022-10-31T16:40:20;20.20;6.80